Latest Weather Observations for Khancoban

IDN60801

Issued at 9:34 am EDT Wednesday 28 January 2015 (issued every 30 minutes, with the page automatically refreshed every 10 minutes)

About weather observations | Map of weather stations | Latest weather observations for NSW | Other Formats
Station Details ID: 072162 Name: KHANCOBAN AWS Lat: -36.23 Lon: 148.14 Height: 339.3 m
Data from the previous 72 hours. | See also: Recent months at Khancoban
Date/Time
EDT
Temp
°C
App
Temp
°C
Dew
Point
Rel
Hum
%
Delta-T
°C
Wind Press
QNH
hPa
Press
MSL
hPa
Rain
since 9 am
mm
Dir
 
Spd
km/h
Gust
km/h
Spd
kts
Gust
kts
28/09:30am 19.9 18.8 10.0 53 5.4 E 6 9 3 5 1015.3 1013.7 0.0
28/08:30am 17.8 17.3 10.7 63 3.9 NNW 4 9 2 5 1015.2 1013.6 0.0
28/08:00am 16.7 17.1 11.4 71 2.9 CALM 0 4 0 2 1014.9 1013.4 0.0
28/07:30am 13.8 13.4 12.4 91 0.8 SE 6 7 3 4 1014.6 1013.1 0.0
28/07:00am 11.9 12.3 11.3 96 0.3 CALM 0 0 0 0 1014.5 1013.0 0.0
28/06:30am 11.9 11.6 11.3 96 0.3 SE 4 9 2 5 1014.3 1012.7 0.0
28/06:00am 12.0 11.1 10.7 92 0.7 ESE 6 9 3 5 1013.9 1012.3 0.0
28/05:30am 12.3 12.0 11.5 95 0.4 NE 4 6 2 3 1013.8 1012.2 0.0
28/05:00am 12.0 11.7 11.4 96 0.3 SE 4 7 2 4 1013.6 1012.0 0.0
28/04:30am 12.1 12.1 11.3 95 0.4 SE 2 7 1 4 1013.4 1011.8 0.0
28/04:00am 12.7 12.1 11.6 93 0.6 SE 6 7 3 4 1013.4 1011.8 0.0
28/03:30am 13.1 13.6 11.5 90 0.9 CALM 0 0 0 0 1013.4 1011.8 0.0
28/03:00am 13.3 13.0 11.5 89 1.0 SE 4 7 2 4 1013.6 1012.0 0.0
28/02:30am 14.3 14.9 11.8 85 1.4 CALM 0 0 0 0 1013.7 1012.1 0.0
28/02:00am 13.6 14.2 11.8 89 1.0 CALM 0 6 0 3 1013.8 1012.2 0.0
28/01:30am 13.6 13.8 12.0 90 0.9 ESE 2 7 1 4 1013.8 1012.2 0.0
28/01:00am 13.7 13.9 11.9 89 1.0 ESE 2 11 1 6 1013.8 1012.2 0.0
28/12:30am 13.5 12.9 11.6 88 1.0 ESE 6 7 3 4 1013.9 1012.3 0.0
28/12:00am 13.9 13.3 11.8 87 1.1 SSE 6 7 3 4 1013.7 1012.1 0.0
 
Date/Time
EDT
Temp
°C
App
Temp
°C
Dew
Point
Rel
Hum
%
Delta-T
°C
Wind Press
QNH
hPa
Press
MSL
hPa
Rain
since 9 am
mm
Dir
 
Spd
km/h
Gust
km/h
Spd
kts
Gust
kts
27/11:30pm 14.1 13.8 11.6 85 1.4 SE 4 7 2 4 1013.5 1011.9 0.0
27/11:00pm 14.7 14.5 11.7 82 1.6 ENE 4 6 2 3 1013.4 1011.8 0.0
27/10:30pm 15.3 15.4 11.5 78 2.1 ESE 2 6 1 3 1013.3 1011.7 0.0
27/10:00pm 16.1 15.4 11.3 73 2.6 SE 6 9 3 5 1013.4 1011.8 0.0
27/09:30pm 17.2 16.2 11.0 67 3.4 SSE 7 11 4 6 1013.1 1011.5 0.0
27/09:00pm 18.3 16.7 11.4 64 3.8 WSW 11 19 6 10 1012.6 1011.0 0.0
27/08:30pm 20.3 20.5 10.7 54 5.3 CALM 0 0 0 0 1012.1 1010.5 0.0
27/08:00pm 21.7 20.6 9.9 47 6.5 ESE 6 9 3 5 1011.6 1010.0 0.0
27/07:30pm 22.4 21.4 10.9 48 6.5 ESE 7 13 4 7 1011.1 1009.5 0.0
27/07:00pm 23.0 22.0 10.4 45 7.0 NNW 6 13 3 7 1010.5 1008.9 0.0
27/06:30pm 23.1 21.8 11.2 47 6.7 ENE 9 19 5 10 1010.0 1008.4 0.0
27/06:00pm 23.4 19.0 10.5 44 7.2 ENE 24 32 13 17 1009.7 1008.1 0.0
27/05:30pm 24.0 18.9 10.7 43 7.5 ENE 28 37 15 20 1009.7 1008.1 0.0
27/05:00pm 27.5 24.7 14.2 44 8.1 SSW 22 33 12 18 1009.4 1007.8 0.0
27/04:30pm 26.1 23.3 13.2 44 7.7 S 20 28 11 15 1009.5 1007.9 0.0
27/04:00pm 24.9 22.6 13.1 48 7.0 SE 17 35 9 19 1009.6 1008.0 0.0
27/03:30pm 27.1 25.9 11.6 38 9.0 N 9 15 5 8 1009.7 1008.1 0.0
27/03:00pm 26.8 25.6 12.8 42 8.3 ESE 11 15 6 8 1010.2 1008.6 0.0
27/02:30pm 26.3 25.0 12.4 42 8.2 WNW 11 19 6 10 1010.7 1009.1 0.0
27/02:00pm 26.0 24.8 12.8 44 7.8 WSW 11 20 6 11 1011.0 1009.4 0.0
27/01:30pm 25.1 24.1 13.3 48 7.0 SSW 11 20 6 11 1011.3 1009.7 0.0
27/01:00pm 25.4 23.9 14.2 50 6.7 SSW 15 22 8 12 1011.9 1010.4 0.0
27/12:30pm 24.0 22.2 13.2 50 6.4 SW 15 20 8 11 1012.4 1010.8 0.0
27/12:00pm 23.1 23.2 12.7 52 6.0 SSE 4 9 2 5 1012.9 1011.3 0.0
27/11:30am 21.2 20.4 11.8 55 5.3 SSW 7 17 4 9 1013.3 1011.7 0.0
27/11:00am 20.3 18.7 11.5 57 4.9 SW 11 17 6 9 1013.4 1011.8 0.0
27/10:30am 20.0 19.2 11.2 57 4.9 NE 6 9 3 5 1013.6 1012.0 0.0
27/10:00am 19.3 18.8 10.8 58 4.7 SSW 4 9 2 5 1013.7 1012.1 0.0
27/09:30am 18.5 17.7 11.6 64 3.8 SSW 7 13 4 7 1014.0 1012.4 0.0
27/09:00am 18.4 17.6 11.2 63 4.0 SE 6 9 3 5 1013.9 1012.3 0.0
27/08:30am 17.0 16.1 10.8 67 3.4 SW 6 9 3 5 1013.8 1012.2 0.0
27/08:00am 16.5 15.0 10.6 68 3.2 SSW 9 13 5 7 1013.8 1012.2 0.0
27/07:30am 15.9 14.9 10.9 72 2.7 SSW 7 13 4 7 1013.6 1012.0 0.0
27/07:00am 15.1 15.6 12.8 86 1.3 SSE 2 6 1 3 1013.5 1011.9 0.0
27/06:30am 15.2 14.1 10.8 75 2.4 NE 7 9 4 5 1013.4 1011.8 0.0
27/06:00am 15.0 14.7 11.4 79 2.0 NE 4 9 2 5 1013.2 1011.6 0.0
27/05:30am 14.8 15.6 12.5 86 1.3 CALM 0 0 0 0 1012.9 1011.3 0.0
27/05:00am 15.2 15.2 11.2 77 2.2 ENE 2 7 1 4 1013.0 1011.4 0.0
27/04:30am 15.3 15.7 11.3 77 2.2 CALM 0 0 0 0 1013.0 1011.4 0.0
27/04:00am 15.2 14.7 10.8 75 2.4 S 4 7 2 4 1013.1 1011.5 0.0
27/03:30am 14.6 14.9 11.0 79 1.9 CALM 0 0 0 0 1013.3 1011.7 0.0
27/03:00am 14.8 15.3 11.6 81 1.7 CALM 0 0 0 0 1013.5 1011.9 0.0
27/02:30am 15.2 15.6 11.2 77 2.2 CALM 0 0 0 0 1013.5 1011.9 0.0
27/02:00am 15.3 14.7 10.5 73 2.6 NE 4 7 2 4 1013.6 1012.0 0.0
27/01:30am 15.5 14.4 9.8 69 3.0 SSE 6 11 3 6 1013.8 1012.2 0.0
27/01:00am 16.0 14.8 9.7 66 3.3 SE 6 13 3 7 1013.9 1012.3 0.0
27/12:30am 15.7 14.7 10.2 70 2.9 S 6 13 3 7 1013.9 1012.3 0.0
27/12:00am 16.0 14.7 9.9 67 3.2 SSE 7 11 4 6 1013.8 1012.2 0.0
 
Date/Time
EDT
Temp
°C
App
Temp
°C
Dew
Point
Rel
Hum
%
Delta-T
°C
Wind Press
QNH
hPa
Press
MSL
hPa
Rain
since 9 am
mm
Dir
 
Spd
km/h
Gust
km/h
Spd
kts
Gust
kts
26/11:30pm 16.3 14.9 9.7 65 3.5 SSE 7 11 4 6 1013.7 1012.1 0.0
26/11:00pm 16.2 14.9 10.1 67 3.3 SSE 7 13 4 7 1013.6 1012.0 0.0
26/10:30pm 16.5 13.2 9.4 63 3.8 SSW 17 20 9 11 1013.3 1011.7 0.0
26/10:00pm 16.6 14.4 9.5 63 3.8 SW 11 17 6 9 1013.1 1011.5 0.0
26/09:30pm 17.7 15.4 9.1 57 4.6 SSW 11 17 6 9 1012.5 1010.9 0.0
26/09:00pm 19.3 17.1 9.5 53 5.3 W 11 17 6 9 1011.9 1010.4 0.0
26/08:30pm 21.0 19.5 9.3 47 6.3 WSW 7 17 4 9 1011.5 1009.9 0.0
26/08:00pm 22.0 19.4 9.5 45 6.8 WSW 13 32 7 17 1010.8 1009.2 0.0
26/07:30pm 24.6 22.2 8.5 36 8.8 SSW 11 19 6 10 1010.3 1008.7 0.0
26/07:00pm 25.8 23.5 7.4 31 9.9 W 9 15 5 8 1010.0 1008.4 0.0
26/06:30pm 25.7 22.0 6.3 29 10.2 WNW 15 19 8 10 1009.8 1008.2 0.0
26/06:00pm 25.7 21.9 5.8 28 10.4 W 15 19 8 10 1009.8 1008.2 0.0
26/05:30pm 26.0 23.1 8.0 32 9.8 W 13 20 7 11 1009.9 1008.3 0.0
26/05:00pm 25.7 22.5 6.8 30 10.1 WNW 13 22 7 12 1010.4 1008.8 0.0
26/04:30pm 25.6 22.3 6.3 29 10.2 NW 13 20 7 11 1010.7 1009.1 0.0
26/04:00pm 25.7 22.7 7.8 32 9.7 NW 13 20 7 11 1010.9 1009.3 0.0
26/03:30pm 25.5 22.4 7.1 31 9.8 WNW 13 20 7 11 1011.2 1009.6 0.0
26/03:00pm 24.9 22.7 9.2 37 8.7 W 11 22 6 12 1011.5 1009.9 0.0
26/02:30pm 24.3 21.0 6.6 32 9.3 WNW 13 19 7 10 1011.7 1010.1 0.0
26/02:00pm 23.7 20.6 5.6 31 9.3 W 11 28 6 15 1012.1 1010.5 0.0
26/01:30pm 23.6 21.7 6.8 34 8.8 W 6 19 3 10 1012.3 1010.7 0.0
26/01:00pm 22.8 19.5 4.8 31 9.1 W 11 19 6 10 1012.8 1011.2 0.0
26/12:30pm 23.1 20.4 7.2 36 8.4 W 11 19 6 10 1013.2 1011.6 0.0
26/12:00pm 21.6 18.3 6.3 37 7.9 W 13 22 7 12 1013.5 1011.9 0.0
26/11:30am 21.3 19.4 8.9 45 6.7 WNW 9 17 5 9 1013.6 1012.0 0.0
26/11:00am 20.6 19.2 8.9 47 6.3 SW 6 9 3 5 1013.7 1012.1 0.0
26/10:30am 19.1 17.4 7.5 47 6.0 SE 6 9 3 5 1013.8 1012.2 0.0
26/10:00am 18.0 16.1 6.8 48 5.7 ESE 6 7 3 4 1013.8 1012.2 0.0
26/09:30am 16.6 15.0 7.8 56 4.5 NW 6 9 3 5 1014.1 1012.5 0.0
26/09:00am 16.2 14.8 8.7 61 3.9 NNE 6 9 3 5 1014.2 1012.6 0.2
26/08:30am 14.3 12.8 8.3 67 3.1 NNE 6 7 3 4 1014.1 1012.5 0.2
26/08:00am 13.5 11.9 8.8 73 2.4 NNE 7 9 4 5 1013.8 1012.2 0.2
26/07:30am 11.4 11.5 10.0 91 0.7 CALM 0 2 0 1 1013.5 1011.9 0.2
26/07:00am 10.0 9.6 8.4 90 0.8 CALM 0 6 0 3 1013.3 1011.7 0.2
26/06:30am 10.5 8.7 7.9 84 1.3 NNE 7 11 4 6 1012.8 1011.2 0.2
26/06:00am 10.2 9.1 8.6 90 0.8 NE 4 7 2 4 1012.1 1010.5 0.2
26/05:30am 10.8 9.8 8.7 87 1.1 NE 4 7 2 4 1011.6 1010.0 0.2
26/05:00am 9.8 9.2 8.9 94 0.5 SE 2 6 1 3 1011.5 1009.9 0.2
26/04:30am 10.4 9.8 8.8 90 0.8 SSE 2 9 1 5 1011.2 1009.6 0.2
26/04:00am 11.1 10.8 8.7 85 1.2 CALM 0 2 0 1 1011.0 1009.4 0.2
26/03:30am 11.8 10.5 9.2 84 1.3 NE 6 9 3 5 1010.8 1009.2 0.2
26/03:00am 12.1 12.1 9.8 86 1.2 CALM 0 0 0 0 1010.8 1009.2 0.2
26/02:30am 12.2 12.1 9.6 84 1.3 CALM 0 0 0 0 1010.5 1008.9 0.2
26/02:00am 12.0 11.5 9.2 83 1.4 NE 2 7 1 4 1010.5 1008.9 0.2
26/01:30am 11.5 11.5 9.9 90 0.8 CALM 0 6 0 3 1010.5 1008.9 0.2
26/01:00am 11.8 11.8 9.7 87 1.1 CALM 0 0 0 0 1010.3 1008.7 0.2
26/12:30am 12.6 12.4 8.9 78 1.9 CALM 0 0 0 0 1010.2 1008.6 0.2
26/12:00am 14.0 12.4 8.8 71 2.7 S 7 9 4 5 1010.1 1008.5 0.2
 
Date/Time
EDT
Temp
°C
App
Temp
°C
Dew
Point
Rel
Hum
%
Delta-T
°C
Wind Press
QNH
hPa
Press
MSL
hPa
Rain
since 9 am
mm
Dir
 
Spd
km/h
Gust
km/h
Spd
kts
Gust
kts
25/11:30pm 15.1 13.9 10.3 73 2.6 SW 7 9 4 5 1009.9 1008.3 0.2
25/11:00pm 17.6 14.9 7.4 51 5.2 NE 11 17 6 9 1009.6 1008.0 0.2
25/10:30pm 16.8 15.3 9.2 61 4.0 NE 7 11 4 6 1009.5 1007.9 0.2
25/10:00pm 17.8 15.4 8.6 55 4.8 NE 11 15 6 8 1009.1 1007.4 0.2
25/09:30pm 18.1 16.2 8.9 55 4.9 ENE 9 13 5 7 1008.6 1007.0 0.2
25/09:00pm 19.2 17.3 7.6 47 6.0 NNE 7 9 4 5 1008.3 1006.7 0.2
25/08:30pm 20.8 18.2 7.8 43 6.8 N 11 15 6 8 1007.8 1006.2 0.2
25/08:00pm 21.9 18.8 7.3 39 7.7 NW 13 19 7 10 1007.3 1005.7 0.2
25/07:30pm 23.8 21.5 9.0 39 8.1 WNW 11 17 6 9 1006.9 1005.3 0.2
25/07:00pm 25.0 21.7 8.1 34 9.2 WNW 15 20 8 11 1006.6 1004.9 0.2
25/06:30pm 25.5 21.0 6.2 29 10.1 WNW 19 24 10 13 1006.2 1004.5 0.2
25/06:00pm 26.0 21.3 6.1 28 10.5 NW 20 28 11 15 1005.9 1004.2 0.2
25/05:30pm 26.4 20.7 4.8 25 11.1 WNW 24 33 13 18 1005.7 1004.1 0.2
25/05:00pm 26.8 20.9 4.0 23 11.7 NW 24 32 13 17 1005.5 1003.9 0.2
25/04:30pm 27.0 20.8 4.1 23 11.7 NW 26 33 14 18 1005.3 1003.7 0.2
25/04:00pm 27.3 21.2 5.0 24 11.6 WNW 26 35 14 19 1005.2 1003.6 0.2
25/03:30pm 27.4 21.1 3.8 22 12.0 WNW 26 37 14 20 1005.2 1003.6 0.2
25/03:00pm 27.3 22.1 5.6 25 11.4 NNW 22 33 12 18 1005.2 1003.6 0.2
25/02:30pm 27.8 21.8 7.1 27 11.2 NNW 28 41 15 22 1005.3 1003.7 0.2
25/02:00pm 27.4 21.3 6.8 27 11.1 NNW 28 41 15 22 1005.0 1003.4 0.2
25/01:30pm 27.4 21.8 8.8 31 10.3 NW 28 43 15 23 1005.0 1003.4 0.2
25/01:00pm 26.5 22.7 9.8 35 9.4 N 20 33 11 18 1005.2 1003.6 0.2
25/12:30pm 26.3 23.3 10.5 37 9.0 N 17 30 9 16 1005.4 1003.8 0.2
25/12:00pm 25.6 22.6 12.1 43 7.9 NNW 19 28 10 15 1005.6 1004.0 0.2
25/11:30am 24.9 23.2 12.5 46 7.2 WNW 13 19 7 10 1005.9 1004.2 0.2
25/11:00am 25.1 23.6 12.0 44 7.6 WNW 11 17 6 9 1005.7 1004.1 0.2
25/10:30am 24.4 21.5 9.6 39 8.2 WNW 15 22 8 12 1006.0 1004.3 0.0
25/10:00am 23.8 21.7 11.2 45 7.2 WNW 13 20 7 11 1005.9 1004.2 0.0

Other Formats:

Comma delimited format used in spreadsheet applications
http://www.bom.gov.au/fwo/IDN60801/IDN60801.94919.axf

JavaScript Object Notation format (JSON) in row-major order
http://www.bom.gov.au/fwo/IDN60801/IDN60801.94919.json